sensor_id;sensor_type;location;lat;lon;timestamp;pressure;altitude;pressure_sealevel;temperature;humidity
7052;BME280;3567;52.444;13.556;2022-07-23T00:00:32;101424.03;;;16.46;100.00
7052;BME280;3567;52.444;13.556;2022-07-23T00:02:59;101427.22;;;16.43;100.00
7052;BME280;3567;52.444;13.556;2022-07-23T00:05:24;101427.47;;;16.41;100.00
7052;BME280;3567;52.444;13.556;2022-07-23T00:07:50;101411.47;;;16.40;100.00
7052;BME280;3567;52.444;13.556;2022-07-23T00:10:15;101408.22;;;16.38;100.00
7052;BME280;3567;52.444;13.556;2022-07-23T00:12:41;101406.59;;;16.37;100.00
7052;BME280;3567;52.444;13.556;2022-07-23T00:15:07;101398.97;;;16.34;100.00
7052;BME280;3567;52.444;13.556;2022-07-23T00:17:33;101397.88;;;16.35;100.00
7052;BME280;3567;52.444;13.556;2022-07-23T00:19:58;101395.19;;;16.35;100.00
7052;BME280;3567;52.444;13.556;2022-07-23T00:22:24;101400.84;;;16.33;100.00
7052;BME280;3567;52.444;13.556;2022-07-23T00:24:49;101393.00;;;16.32;100.00
7052;BME280;3567;52.444;13.556;2022-07-23T00:27:15;101389.41;;;16.26;100.00
7052;BME280;3567;52.444;13.556;2022-07-23T00:29:40;101383.94;;;16.21;100.00
7052;BME280;3567;52.444;13.556;2022-07-23T00:32:05;101387.38;;;16.16;100.00
7052;BME280;3567;52.444;13.556;2022-07-23T00:34:31;101387.06;;;16.13;100.00
7052;BME280;3567;52.444;13.556;2022-07-23T00:36:56;101390.03;;;16.11;100.00
7052;BME280;3567;52.444;13.556;2022-07-23T00:39:22;101399.19;;;16.10;100.00
7052;BME280;3567;52.444;13.556;2022-07-23T00:41:48;101396.75;;;16.09;100.00
7052;BME280;3567;52.444;13.556;2022-07-23T00:44:17;101384.88;;;16.10;100.00
7052;BME280;3567;52.444;13.556;2022-07-23T00:46:54;101384.13;;;16.14;100.00
7052;BME280;3567;52.444;13.556;2022-07-23T00:49:27;101382.72;;;16.12;100.00
7052;BME280;3567;52.444;13.556;2022-07-23T00:51:53;101380.03;;;16.12;100.00
7052;BME280;3567;52.444;13.556;2022-07-23T00:54:20;101390.34;;;16.15;100.00
7052;BME280;3567;52.444;13.556;2022-07-23T00:56:46;101397.66;;;16.14;100.00
7052;BME280;3567;52.444;13.556;2022-07-23T00:59:13;101399.00;;;16.17;100.00
7052;BME280;3567;52.444;13.556;2022-07-23T01:01:39;101396.88;;;16.19;100.00
7052;BME280;3567;52.444;13.556;2022-07-23T01:04:04;101376.09;;;16.19;100.00
7052;BME280;3567;52.444;13.556;2022-07-23T01:06:34;101377.94;;;16.19;100.00
7052;BME280;3567;52.444;13.556;2022-07-23T01:09:01;101376.91;;;16.20;100.00
7052;BME280;3567;52.444;13.556;2022-07-23T01:11:27;101377.72;;;16.20;100.00
7052;BME280;3567;52.444;13.556;2022-07-23T01:13:52;101380.97;;;16.22;100.00
7052;BME280;3567;52.444;13.556;2022-07-23T01:16:19;101402.13;;;16.26;100.00
7052;BME280;3567;52.444;13.556;2022-07-23T01:18:44;101392.94;;;16.27;100.00
7052;BME280;3567;52.444;13.556;2022-07-23T01:21:11;101389.16;;;16.28;100.00
7052;BME280;3567;52.444;13.556;2022-07-23T01:23:38;101383.50;;;16.29;100.00
7052;BME280;3567;52.444;13.556;2022-07-23T01:26:04;101381.59;;;16.30;100.00
7052;BME280;3567;52.444;13.556;2022-07-23T01:28:29;101379.97;;;16.29;100.00
7052;BME280;3567;52.444;13.556;2022-07-23T01:30:54;101380.22;;;16.27;100.00
7052;BME280;3567;52.444;13.556;2022-07-23T01:33:20;101379.41;;;16.27;100.00
7052;BME280;3567;52.444;13.556;2022-07-23T01:35:45;101371.78;;;16.23;100.00
7052;BME280;3567;52.444;13.556;2022-07-23T01:38:10;101372.31;;;16.20;100.00
7052;BME280;3567;52.444;13.556;2022-07-23T01:40:36;101366.91;;;16.20;100.00
7052;BME280;3567;52.444;13.556;2022-07-23T01:43:01;101350.69;;;16.20;100.00
7052;BME280;3567;52.444;13.556;2022-07-23T01:45:26;101347.41;;;16.18;100.00
7052;BME280;3567;52.444;13.556;2022-07-23T01:47:52;101360.63;;;16.15;100.00
7052;BME280;3567;52.444;13.556;2022-07-23T01:50:17;101360.56;;;16.10;100.00
7052;BME280;3567;52.444;13.556;2022-07-23T01:52:43;101364.00;;;16.05;100.00
7052;BME280;3567;52.444;13.556;2022-07-23T01:55:09;101355.31;;;16.03;100.00
7052;BME280;3567;52.444;13.556;2022-07-23T01:57:34;101357.44;;;16.01;100.00
7052;BME280;3567;52.444;13.556;2022-07-23T01:59:59;101352.56;;;15.98;100.00
7052;BME280;3567;52.444;13.556;2022-07-23T02:02:25;101340.59;;;15.94;100.00
7052;BME280;3567;52.444;13.556;2022-07-23T02:04:50;101341.91;;;15.91;100.00
7052;BME280;3567;52.444;13.556;2022-07-23T02:07:16;101348.66;;;15.89;100.00
7052;BME280;3567;52.444;13.556;2022-07-23T02:09:41;101342.66;;;15.87;100.00
7052;BME280;3567;52.444;13.556;2022-07-23T02:12:07;101348.06;;;15.87;100.00
7052;BME280;3567;52.444;13.556;2022-07-23T02:14:32;101348.31;;;15.85;100.00
7052;BME280;3567;52.444;13.556;2022-07-23T02:16:58;101361.56;;;15.87;100.00
7052;BME280;3567;52.444;13.556;2022-07-23T02:19:23;101356.16;;;15.87;100.00
7052;BME280;3567;52.444;13.556;2022-07-23T02:21:48;101358.63;;;15.88;100.00
7052;BME280;3567;52.444;13.556;2022-07-23T02:24:14;101363.78;;;15.90;100.00
7052;BME280;3567;52.444;13.556;2022-07-23T02:26:40;101351.91;;;15.91;100.00
7052;BME280;3567;52.444;13.556;2022-07-23T02:29:05;101353.53;;;15.92;100.00
7052;BME280;3567;52.444;13.556;2022-07-23T02:31:31;101352.72;;;15.91;100.00
7052;BME280;3567;52.444;13.556;2022-07-23T02:33:56;101353.53;;;15.92;100.00
7052;BME280;3567;52.444;13.556;2022-07-23T02:36:23;101349.78;;;15.93;100.00
7052;BME280;3567;52.444;13.556;2022-07-23T02:38:48;101347.66;;;15.95;100.00
7052;BME280;3567;52.444;13.556;2022-07-23T02:41:14;101347.16;;;15.98;100.00
7052;BME280;3567;52.444;13.556;2022-07-23T02:43:40;101355.81;;;16.00;100.00
7052;BME280;3567;52.444;13.556;2022-07-23T02:46:05;101335.84;;;16.01;100.00
7052;BME280;3567;52.444;13.556;2022-07-23T02:48:30;101346.63;;;16.01;100.00
7052;BME280;3567;52.444;13.556;2022-07-23T02:50:56;101352.03;;;16.01;100.00
7052;BME280;3567;52.444;13.556;2022-07-23T02:53:22;101356.88;;;15.99;100.00
7052;BME280;3567;52.444;13.556;2022-07-23T02:55:48;101352.56;;;15.98;100.00
7052;BME280;3567;52.444;13.556;2022-07-23T02:58:13;101359.59;;;15.99;100.00
7052;BME280;3567;52.444;13.556;2022-07-23T03:00:39;101361.22;;;16.00;100.00
7052;BME280;3567;52.444;13.556;2022-07-23T03:03:04;101362.84;;;16.01;100.00
7052;BME280;3567;52.444;13.556;2022-07-23T03:05:30;101352.03;;;16.01;100.00
7052;BME280;3567;52.444;13.556;2022-07-23T03:07:55;101348.78;;;15.99;100.00
7052;BME280;3567;52.444;13.556;2022-07-23T03:10:20;101345.50;;;15.97;100.00
7052;BME280;3567;52.444;13.556;2022-07-23T03:12:46;101344.69;;;15.96;100.00
7052;BME280;3567;52.444;13.556;2022-07-23T03:15:11;101342.78;;;15.97;100.00
7052;BME280;3567;52.444;13.556;2022-07-23T03:17:36;101340.91;;;15.97;100.00
7052;BME280;3567;52.444;13.556;2022-07-23T03:20:02;101341.50;;;16.00;100.00
7052;BME280;3567;52.444;13.556;2022-07-23T03:22:27;101335.84;;;16.01;100.00
7052;BME280;3567;52.444;13.556;2022-07-23T03:24:53;101337.47;;;16.02;100.00
7052;BME280;3567;52.444;13.556;2022-07-23T03:27:19;101342.88;;;16.02;100.00
7052;BME280;3567;52.444;13.556;2022-07-23T03:29:44;101337.78;;;16.06;100.00
7052;BME280;3567;52.444;13.556;2022-07-23T03:32:10;101336.47;;;16.08;100.00
7052;BME280;3567;52.444;13.556;2022-07-23T03:34:35;101332.72;;;16.09;100.00
7052;BME280;3567;52.444;13.556;2022-07-23T03:37:01;101337.59;;;16.12;100.00
7052;BME280;3567;52.444;13.556;2022-07-23T03:39:27;101347.66;;;16.17;100.00
7052;BME280;3567;52.444;13.556;2022-07-23T03:41:52;101344.22;;;16.21;100.00
7052;BME280;3567;52.444;13.556;2022-07-23T03:44:18;101358.88;;;16.26;100.00
7052;BME280;3567;52.444;13.556;2022-07-23T03:46:43;101356.22;;;16.31;100.00
7052;BME280;3567;52.444;13.556;2022-07-23T03:49:09;101363.81;;;16.34;100.00
7052;BME280;3567;52.444;13.556;2022-07-23T03:51:34;101371.19;;;16.38;100.00
7052;BME280;3567;52.444;13.556;2022-07-23T03:53:59;101369.88;;;16.41;100.00
7052;BME280;3567;52.444;13.556;2022-07-23T03:56:25;101362.88;;;16.45;100.00
7052;BME280;3567;52.444;13.556;2022-07-23T03:58:51;101374.28;;;16.47;100.00
7052;BME280;3567;52.444;13.556;2022-07-23T04:01:16;101381.84;;;16.50;100.00
7052;BME280;3567;52.444;13.556;2022-07-23T04:03:42;101387.34;;;16.55;100.00
7052;BME280;3567;52.444;13.556;2022-07-23T04:06:07;101381.69;;;16.57;100.00
7052;BME280;3567;52.444;13.556;2022-07-23T04:08:33;101382.25;;;16.59;100.00
7052;BME280;3567;52.444;13.556;2022-07-23T04:10:58;101386.56;;;16.60;100.00
7052;BME280;3567;52.444;13.556;2022-07-23T04:13:24;101375.28;;;16.63;100.00
7052;BME280;3567;52.444;13.556;2022-07-23T04:15:49;101372.78;;;16.61;100.00
7052;BME280;3567;52.444;13.556;2022-07-23T04:18:16;101361.16;;;16.61;99.44
7052;BME280;3567;52.444;13.556;2022-07-23T04:20:43;101374.44;;;16.62;99.70
7052;BME280;3567;52.444;13.556;2022-07-23T04:23:08;101386.63;;;16.65;99.31
7052;BME280;3567;52.444;13.556;2022-07-23T04:25:35;101384.25;;;16.68;99.00
7052;BME280;3567;52.444;13.556;2022-07-23T04:28:00;101379.41;;;16.70;98.45
7052;BME280;3567;52.444;13.556;2022-07-23T04:30:25;101371.28;;;16.70;98.75
7052;BME280;3567;52.444;13.556;2022-07-23T04:32:51;101368.03;;;16.68;98.21
7052;BME280;3567;52.444;13.556;2022-07-23T04:35:16;101372.03;;;16.66;98.57
7052;BME280;3567;52.444;13.556;2022-07-23T04:37:41;101369.03;;;16.62;98.10
7052;BME280;3567;52.444;13.556;2022-07-23T04:40:07;101384.13;;;16.58;98.15
7052;BME280;3567;52.444;13.556;2022-07-23T04:42:33;101409.56;;;16.57;98.54
7052;BME280;3567;52.444;13.556;2022-07-23T04:44:58;101395.44;;;16.55;98.58
7052;BME280;3567;52.444;13.556;2022-07-23T04:47:23;101410.53;;;16.51;98.29
7052;BME280;3567;52.444;13.556;2022-07-23T04:49:49;101423.50;;;16.49;97.71
7052;BME280;3567;52.444;13.556;2022-07-23T04:52:14;101421.88;;;16.48;99.19
7052;BME280;3567;52.444;13.556;2022-07-23T04:54:40;101410.91;;;16.38;99.14
7052;BME280;3567;52.444;13.556;2022-07-23T04:57:06;101412.59;;;16.22;99.90
7052;BME280;3567;52.444;13.556;2022-07-23T04:59:31;101423.44;;;16.05;100.00
7052;BME280;3567;52.444;13.556;2022-07-23T05:01:56;101427.06;;;15.94;100.00
7052;BME280;3567;52.444;13.556;2022-07-23T05:04:22;101417.75;;;15.85;100.00
7052;BME280;3567;52.444;13.556;2022-07-23T05:06:47;101389.41;;;15.70;100.00
7052;BME280;3567;52.444;13.556;2022-07-23T05:09:12;101387.03;;;15.57;100.00
7052;BME280;3567;52.444;13.556;2022-07-23T05:11:38;101377.13;;;15.46;100.00
7052;BME280;3567;52.444;13.556;2022-07-23T05:14:03;101384.25;;;15.35;100.00
7052;BME280;3567;52.444;13.556;2022-07-23T05:16:29;101402.81;;;15.32;100.00
7052;BME280;3567;52.444;13.556;2022-07-23T05:18:54;101397.91;;;15.29;100.00
7052;BME280;3567;52.444;13.556;2022-07-23T05:21:20;101397.06;;;15.28;100.00
7052;BME280;3567;52.444;13.556;2022-07-23T05:23:45;101407.84;;;15.28;100.00
7052;BME280;3567;52.444;13.556;2022-07-23T05:26:11;101392.16;;;15.25;100.00
7052;BME280;3567;52.444;13.556;2022-07-23T05:28:36;101399.09;;;15.21;100.00
7052;BME280;3567;52.444;13.556;2022-07-23T05:31:02;101401.34;;;15.24;100.00
7052;BME280;3567;52.444;13.556;2022-07-23T05:33:29;101408.69;;;15.29;100.00
7052;BME280;3567;52.444;13.556;2022-07-23T05:36:00;101411.16;;;15.30;100.00
7052;BME280;3567;52.444;13.556;2022-07-23T05:38:26;101407.84;;;15.28;100.00
7052;BME280;3567;52.444;13.556;2022-07-23T05:40:51;101397.91;;;15.29;100.00
7052;BME280;3567;52.444;13.556;2022-07-23T05:43:17;101400.34;;;15.30;100.00
7052;BME280;3567;52.444;13.556;2022-07-23T05:45:42;101406.00;;;15.29;100.00
7052;BME280;3567;52.444;13.556;2022-07-23T05:48:07;101413.25;;;15.28;100.00
7052;BME280;3567;52.444;13.556;2022-07-23T05:50:33;101427.09;;;15.32;100.00
7052;BME280;3567;52.444;13.556;2022-07-23T05:52:58;101415.13;;;15.28;100.00
7052;BME280;3567;52.444;13.556;2022-07-23T05:55:24;101424.81;;;15.24;100.00
7052;BME280;3567;52.444;13.556;2022-07-23T05:57:49;101427.25;;;15.25;100.00
7052;BME280;3567;52.444;13.556;2022-07-23T06:00:15;101418.09;;;15.26;100.00
7052;BME280;3567;52.444;13.556;2022-07-23T06:02:40;101403.44;;;15.22;100.00
7052;BME280;3567;52.444;13.556;2022-07-23T06:05:06;101399.59;;;15.18;100.00
7052;BME280;3567;52.444;13.556;2022-07-23T06:07:33;101421.19;;;15.18;100.00
7052;BME280;3567;52.444;13.556;2022-07-23T06:09:58;101417.75;;;15.23;100.00
7052;BME280;3567;52.444;13.556;2022-07-23T06:12:24;101412.94;;;15.25;100.00
7052;BME280;3567;52.444;13.556;2022-07-23T06:14:50;101399.44;;;15.25;100.00
7052;BME280;3567;52.444;13.556;2022-07-23T06:17:17;101396.06;;;15.17;100.00
7052;BME280;3567;52.444;13.556;2022-07-23T06:19:43;101391.31;;;15.08;100.00
7052;BME280;3567;52.444;13.556;2022-07-23T06:22:08;101406.59;;;15.02;100.00
7052;BME280;3567;52.444;13.556;2022-07-23T06:24:34;101405.28;;;15.05;100.00
7052;BME280;3567;52.444;13.556;2022-07-23T06:26:59;101392.53;;;15.00;100.00
7052;BME280;3567;52.444;13.556;2022-07-23T06:29:25;101394.66;;;14.98;100.00
7052;BME280;3567;52.444;13.556;2022-07-23T06:31:50;101386.56;;;14.98;100.00
7052;BME280;3567;52.444;13.556;2022-07-23T06:34:15;101399.22;;;14.98;100.00
7052;BME280;3567;52.444;13.556;2022-07-23T06:36:41;101400.50;;;14.95;100.00
7052;BME280;3567;52.444;13.556;2022-07-23T06:39:06;101407.06;;;14.99;100.00
7052;BME280;3567;52.444;13.556;2022-07-23T06:41:31;101402.75;;;14.98;100.00
7052;BME280;3567;52.444;13.556;2022-07-23T06:43:57;101408.47;;;15.02;100.00
7052;BME280;3567;52.444;13.556;2022-07-23T06:46:22;101390.63;;;15.01;100.00
7052;BME280;3567;52.444;13.556;2022-07-23T06:48:48;101386.06;;;15.01;100.00
7052;BME280;3567;52.444;13.556;2022-07-23T06:51:13;101378.56;;;15.03;100.00
7052;BME280;3567;52.444;13.556;2022-07-23T06:53:39;101391.81;;;15.05;100.00
7052;BME280;3567;52.444;13.556;2022-07-23T06:56:04;101389.34;;;15.03;100.00
7052;BME280;3567;52.444;13.556;2022-07-23T06:58:29;101404.56;;;15.09;100.00
7052;BME280;3567;52.444;13.556;2022-07-23T07:00:55;101394.44;;;15.16;100.00
7052;BME280;3567;52.444;13.556;2022-07-23T07:03:22;101396.97;;;15.23;100.00
7052;BME280;3567;52.444;13.556;2022-07-23T07:05:47;101413.84;;;15.30;100.00
7052;BME280;3567;52.444;13.556;2022-07-23T07:08:12;101400.44;;;15.35;100.00
7052;BME280;3567;52.444;13.556;2022-07-23T07:10:38;101398.06;;;15.39;100.00
7052;BME280;3567;52.444;13.556;2022-07-23T07:13:03;101405.13;;;15.40;100.00
7052;BME280;3567;52.444;13.556;2022-07-23T07:15:28;101416.47;;;15.42;100.00
7052;BME280;3567;52.444;13.556;2022-07-23T07:17:54;101405.19;;;15.45;100.00
7052;BME280;3567;52.444;13.556;2022-07-23T07:20:19;101383.09;;;15.48;100.00
7052;BME280;3567;52.444;13.556;2022-07-23T07:22:45;101388.50;;;15.48;100.00
7052;BME280;3567;52.444;13.556;2022-07-23T07:25:10;101416.91;;;15.51;100.00
7052;BME280;3567;52.444;13.556;2022-07-23T07:27:35;101421.50;;;15.50;100.00
7052;BME280;3567;52.444;13.556;2022-07-23T07:30:02;101420.41;;;15.51;100.00
7052;BME280;3567;52.444;13.556;2022-07-23T07:32:28;101407.56;;;15.58;100.00
7052;BME280;3567;52.444;13.556;2022-07-23T07:34:53;101406.94;;;15.68;100.00
7052;BME280;3567;52.444;13.556;2022-07-23T07:37:19;101407.59;;;15.75;100.00
7052;BME280;3567;52.444;13.556;2022-07-23T07:39:44;101406.28;;;15.78;100.00
7052;BME280;3567;52.444;13.556;2022-07-23T07:42:09;101415.59;;;15.87;100.00
7052;BME280;3567;52.444;13.556;2022-07-23T07:44:35;101406.75;;;15.91;100.00
7052;BME280;3567;52.444;13.556;2022-07-23T07:47:00;101400.34;;;15.97;100.00
7052;BME280;3567;52.444;13.556;2022-07-23T07:49:26;101392.66;;;16.06;100.00
7052;BME280;3567;52.444;13.556;2022-07-23T07:51:51;101399.28;;;16.15;100.00
7052;BME280;3567;52.444;13.556;2022-07-23T07:54:17;101388.38;;;16.10;100.00
7052;BME280;3567;52.444;13.556;2022-07-23T07:56:42;101388.66;;;16.09;100.00
7052;BME280;3567;52.444;13.556;2022-07-23T07:59:08;101389.69;;;16.08;100.00
7052;BME280;3567;52.444;13.556;2022-07-23T08:01:33;101384.53;;;16.06;100.00
7052;BME280;3567;52.444;13.556;2022-07-23T08:03:58;101384.00;;;16.04;100.00
7052;BME280;3567;52.444;13.556;2022-07-23T08:06:24;101372.03;;;16.00;100.00
7052;BME280;3567;52.444;13.556;2022-07-23T08:08:49;101373.72;;;16.06;100.00
7052;BME280;3567;52.444;13.556;2022-07-23T08:11:15;101358.22;;;16.18;100.00
7052;BME280;3567;52.444;13.556;2022-07-23T08:13:41;101364.22;;;16.20;100.00
7052;BME280;3567;52.444;13.556;2022-07-23T08:16:06;101365.09;;;16.26;100.00
7052;BME280;3567;52.444;13.556;2022-07-23T08:18:32;101371.44;;;16.37;100.00
7052;BME280;3567;52.444;13.556;2022-07-23T08:20:57;101378.34;;;16.49;100.00
7052;BME280;3567;52.444;13.556;2022-07-23T08:23:23;101381.97;;;16.60;100.00
7052;BME280;3567;52.444;13.556;2022-07-23T08:25:48;101377.09;;;16.57;100.00
7052;BME280;3567;52.444;13.556;2022-07-23T08:28:15;101385.41;;;16.72;100.00
7052;BME280;3567;52.444;13.556;2022-07-23T08:30:42;101382.84;;;16.88;100.00
7052;BME280;3567;52.444;13.556;2022-07-23T08:33:16;101393.69;;;16.88;100.00
7052;BME280;3567;52.444;13.556;2022-07-23T08:35:44;101384.75;;;16.87;100.00
7052;BME280;3567;52.444;13.556;2022-07-23T08:38:16;101392.75;;;17.04;100.00
7052;BME280;3567;52.444;13.556;2022-07-23T08:40:46;101398.47;;;17.35;100.00
7052;BME280;3567;52.444;13.556;2022-07-23T08:43:17;101383.56;;;17.64;100.00
7052;BME280;3567;52.444;13.556;2022-07-23T08:45:45;101388.53;;;17.77;100.00
7052;BME280;3567;52.444;13.556;2022-07-23T08:48:17;101395.75;;;17.67;100.00
7052;BME280;3567;52.444;13.556;2022-07-23T08:50:48;101390.44;;;17.45;100.00
7052;BME280;3567;52.444;13.556;2022-07-23T08:53:15;101382.81;;;17.37;100.00
7052;BME280;3567;52.444;13.556;2022-07-23T08:55:49;101372.81;;;17.42;100.00
7052;BME280;3567;52.444;13.556;2022-07-23T08:58:15;101386.78;;;17.61;100.00
7052;BME280;3567;52.444;13.556;2022-07-23T09:00:41;101394.31;;;17.86;100.00
7052;BME280;3567;52.444;13.556;2022-07-23T09:03:07;101404.94;;;17.98;100.00
7052;BME280;3567;52.444;13.556;2022-07-23T09:05:36;101406.06;;;18.02;100.00
7052;BME280;3567;52.444;13.556;2022-07-23T09:08:50;101407.44;;;18.10;100.00
7052;BME280;3567;52.444;13.556;2022-07-23T09:11:01;101409.97;;;18.26;100.00
7052;BME280;3567;52.444;13.556;2022-07-23T09:13:48;101404.38;;;18.43;100.00
7052;BME280;3567;52.444;13.556;2022-07-23T09:16:16;101399.28;;;18.57;100.00
7052;BME280;3567;52.444;13.556;2022-07-23T09:18:48;101398.75;;;18.60;100.00
7052;BME280;3567;52.444;13.556;2022-07-23T09:23:53;101398.84;;;18.80;100.00
7052;BME280;3567;52.444;13.556;2022-07-23T09:29:04;101405.94;;;18.97;100.00
7052;BME280;3567;52.444;13.556;2022-07-23T09:31:34;101405.13;;;19.06;100.00
7052;BME280;3567;52.444;13.556;2022-07-23T09:34:11;101399.47;;;19.18;100.00
7052;BME280;3567;52.444;13.556;2022-07-23T09:36:37;101407.63;;;19.28;100.00
7052;BME280;3567;52.444;13.556;2022-07-23T09:39:03;101405.72;;;19.34;100.00
7052;BME280;3567;52.444;13.556;2022-07-23T09:41:40;101407.38;;;19.40;100.00
7052;BME280;3567;52.444;13.556;2022-07-23T09:44:25;101418.50;;;19.54;100.00
7052;BME280;3567;52.444;13.556;2022-07-23T09:46:58;101418.25;;;19.71;100.00
7052;BME280;3567;52.444;13.556;2022-07-23T09:49:23;101413.59;;;19.81;100.00
7052;BME280;3567;52.444;13.556;2022-07-23T09:51:58;101415.78;;;19.95;99.70
7052;BME280;3567;52.444;13.556;2022-07-23T09:54:35;101419.00;;;20.02;100.00
7052;BME280;3567;52.444;13.556;2022-07-23T09:57:09;101428.28;;;20.01;98.31
7052;BME280;3567;52.444;13.556;2022-07-23T09:59:41;101424.44;;;20.12;98.25
7052;BME280;3567;52.444;13.556;2022-07-23T10:02:11;101430.94;;;20.26;95.98
7052;BME280;3567;52.444;13.556;2022-07-23T10:04:37;101434.22;;;20.18;93.77
7052;BME280;3567;52.444;13.556;2022-07-23T10:07:06;101436.41;;;20.06;93.66
7052;BME280;3567;52.444;13.556;2022-07-23T10:09:35;101442.38;;;20.13;93.50
7052;BME280;3567;52.444;13.556;2022-07-23T10:12:04;101439.09;;;20.31;92.87
7052;BME280;3567;52.444;13.556;2022-07-23T10:14:38;101451.00;;;20.56;91.33
7052;BME280;3567;52.444;13.556;2022-07-23T10:17:04;101443.88;;;20.65;90.37
7052;BME280;3567;52.444;13.556;2022-07-23T10:19:31;101451.72;;;20.77;88.54
7052;BME280;3567;52.444;13.556;2022-07-23T10:22:06;101446.72;;;20.99;87.49
7052;BME280;3567;52.444;13.556;2022-07-23T10:30:25;101443.94;;;21.54;79.77
7052;BME280;3567;52.444;13.556;2022-07-23T10:36:02;101439.22;;;22.22;77.78
7052;BME280;3567;52.444;13.556;2022-07-23T10:38:57;101426.44;;;22.66;74.46
7052;BME280;3567;52.444;13.556;2022-07-23T10:41:42;101439.41;;;22.98;71.70
7052;BME280;3567;52.444;13.556;2022-07-23T10:44:13;101441.47;;;23.25;70.83
7052;BME280;3567;52.444;13.556;2022-07-23T10:46:54;101433.38;;;23.52;68.77
7052;BME280;3567;52.444;13.556;2022-07-23T10:49:39;101442.53;;;23.62;67.71
7052;BME280;3567;52.444;13.556;2022-07-23T10:54:44;101440.19;;;23.55;67.87
7052;BME280;3567;52.444;13.556;2022-07-23T10:57:11;101437.91;;;23.43;68.87
7052;BME280;3567;52.444;13.556;2022-07-23T11:02:24;101437.88;;;23.81;66.58
7052;BME280;3567;52.444;13.556;2022-07-23T11:04:52;101443.97;;;24.05;65.27
7052;BME280;3567;52.444;13.556;2022-07-23T11:07:18;101436.88;;;24.04;64.92
7052;BME280;3567;52.444;13.556;2022-07-23T11:09:44;101445.19;;;23.99;65.49
7052;BME280;3567;52.444;13.556;2022-07-23T11:12:31;101441.25;;;24.05;63.68
7052;BME280;3567;52.444;13.556;2022-07-23T11:15:11;101435.19;;;24.50;62.34
7052;BME280;3567;52.444;13.556;2022-07-23T11:22:57;101425.00;;;25.73;58.44
7052;BME280;3567;52.444;13.556;2022-07-23T11:27:49;101416.75;;;25.95;56.76
7052;BME280;3567;52.444;13.556;2022-07-23T11:30:38;101415.19;;;26.51;55.61
7052;BME280;3567;52.444;13.556;2022-07-23T11:35:34;101407.63;;;27.00;52.59
7052;BME280;3567;52.444;13.556;2022-07-23T11:38:06;101405.59;;;27.23;49.99
7052;BME280;3567;52.444;13.556;2022-07-23T11:40:32;101404.13;;;27.17;51.34
7052;BME280;3567;52.444;13.556;2022-07-23T11:43:03;101413.47;;;26.90;49.08
7052;BME280;3567;52.444;13.556;2022-07-23T11:45:35;101414.78;;;27.10;50.66
7052;BME280;3567;52.444;13.556;2022-07-23T11:48:02;101409.28;;;27.45;50.95
7052;BME280;3567;52.444;13.556;2022-07-23T11:50:28;101410.28;;;27.23;49.44
7052;BME280;3567;52.444;13.556;2022-07-23T11:52:54;101412.31;;;26.65;50.41
7052;BME280;3567;52.444;13.556;2022-07-23T11:55:20;101409.28;;;26.27;50.58
7052;BME280;3567;52.444;13.556;2022-07-23T11:57:45;101412.09;;;26.04;50.66
7052;BME280;3567;52.444;13.556;2022-07-23T12:00:13;101413.47;;;25.84;52.75
7052;BME280;3567;52.444;13.556;2022-07-23T12:02:47;101418.56;;;25.55;53.78
7052;BME280;3567;52.444;13.556;2022-07-23T12:05:18;101411.28;;;25.28;54.53
7052;BME280;3567;52.444;13.556;2022-07-23T12:07:45;101413.41;;;24.95;56.50
7052;BME280;3567;52.444;13.556;2022-07-23T12:12:48;101414.13;;;24.50;57.94
7052;BME280;3567;52.444;13.556;2022-07-23T12:15:22;101410.25;;;24.51;57.84
7052;BME280;3567;52.444;13.556;2022-07-23T12:17:49;101416.72;;;24.69;57.66
7052;BME280;3567;52.444;13.556;2022-07-23T12:20:21;101419.34;;;24.74;57.08
7052;BME280;3567;52.444;13.556;2022-07-23T12:22:48;101413.16;;;24.69;56.55
7052;BME280;3567;52.444;13.556;2022-07-23T12:25:19;101409.31;;;24.70;56.97
7052;BME280;3567;52.444;13.556;2022-07-23T12:27:45;101408.59;;;24.64;57.78
7052;BME280;3567;52.444;13.556;2022-07-23T12:30:37;101408.41;;;24.61;57.80
7052;BME280;3567;52.444;13.556;2022-07-23T12:33:04;101416.94;;;24.59;60.85
7052;BME280;3567;52.444;13.556;2022-07-23T12:38:05;101418.75;;;24.64;57.64
7052;BME280;3567;52.444;13.556;2022-07-23T12:40:36;101408.41;;;24.61;59.30
7052;BME280;3567;52.444;13.556;2022-07-23T12:43:05;101411.13;;;24.61;58.67
7052;BME280;3567;52.444;13.556;2022-07-23T12:48:36;101410.44;;;24.69;56.55
7052;BME280;3567;52.444;13.556;2022-07-23T12:51:04;101418.03;;;24.72;57.25
7052;BME280;3567;52.444;13.556;2022-07-23T12:53:43;101410.66;;;24.59;56.11
7052;BME280;3567;52.444;13.556;2022-07-23T12:58:46;101405.31;;;24.40;58.45
7052;BME280;3567;52.444;13.556;2022-07-23T13:06:37;101410.81;;;23.93;59.69
7052;BME280;3567;52.444;13.556;2022-07-23T13:09:04;101401.91;;;23.88;60.06
7052;BME280;3567;52.444;13.556;2022-07-23T13:11:30;101413.66;;;23.88;59.00
7052;BME280;3567;52.444;13.556;2022-07-23T13:13:55;101411.59;;;24.40;59.75
7052;BME280;3567;52.444;13.556;2022-07-23T13:16:21;101411.25;;;24.69;58.20
7052;BME280;3567;52.444;13.556;2022-07-23T13:18:46;101411.13;;;24.61;58.07
7052;BME280;3567;52.444;13.556;2022-07-23T13:21:12;101409.25;;;24.47;58.39
7052;BME280;3567;52.444;13.556;2022-07-23T13:23:37;101406.13;;;24.40;58.45
7052;BME280;3567;52.444;13.556;2022-07-23T13:26:03;101405.59;;;24.24;58.98
7052;BME280;3567;52.444;13.556;2022-07-23T13:28:28;101401.59;;;24.17;58.87
7052;BME280;3567;52.444;13.556;2022-07-23T13:30:54;101396.84;;;24.09;58.99
7052;BME280;3567;52.444;13.556;2022-07-23T13:33:21;101395.72;;;23.96;58.36
7052;BME280;3567;52.444;13.556;2022-07-23T13:35:48;101396.84;;;23.95;58.66
7052;BME280;3567;52.444;13.556;2022-07-23T13:38:13;101399.34;;;23.91;58.71